Time;durP1;ratioP1;P1;durP2;ratioP2;P2;SDS_P1;SDS_P2;PMS_P1;PMS_P2;Temp;Humidity;BMP_temperature;BMP_pressure;BME280_temperature;BME280_humidity;BME280_pressure;Samples;Min_cycle;Max_cycle;Signal;HPM_P1;HPM_P2
2022/02/22 00:00:33;;;;;;;;;;;;;;;7.75;100.00;99189.06;5053932;28;19932;-77
2022/02/22 00:03:00;;;;;;;;;;;;;;;7.87;100.00;99182.25;5053818;28;19991;-77
2022/02/22 00:05:30;;;;;;;;;;;;;;;7.80;100.00;99180.28;5053504;28;19932;-77
2022/02/22 00:07:57;;;;;;;;;;;;;;;7.76;100.00;99176.72;5035150;28;19925;-76
2022/02/22 00:10:26;;;;;;;;;;;;;;;7.70;100.00;99163.63;5051563;28;19951;-76
2022/02/22 00:12:56;;;;;;;;;;;;;;;7.78;100.00;99157.66;5052940;28;19932;-76
2022/02/22 00:15:23;;;;;;;;;;;;;;;7.66;100.00;99162.84;5025188;28;19990;-77
2022/02/22 00:17:50;;;;;;;;;;;;;;;7.80;100.00;99158.03;5055963;28;19924;-76
2022/02/22 00:20:18;;;;;;;;;;;;;;;7.85;100.00;99165.97;5055951;28;19932;-76
2022/02/22 00:23:10;;;;;;;;;;;;;;;7.65;100.00;99153.72;5053628;28;19948;-76
2022/02/22 00:25:38;;;;;;;;;;;;;;;7.49;100.00;99156.16;5053453;28;19971;-76
2022/02/22 00:28:06;;;;;;;;;;;;;;;7.49;100.00;99147.81;5051744;28;19924;-76
2022/02/22 00:30:34;;;;;;;;;;;;;;;7.54;100.00;99150.19;5053802;28;19929;-76
2022/02/22 00:33:02;;;;;;;;;;;;;;;7.44;100.00;99151.00;5057642;28;19925;-76
2022/02/22 00:35:29;;;;;;;;;;;;;;;7.29;100.00;99155.00;5040037;28;20283;-76
2022/02/22 00:38:00;;;;;;;;;;;;;;;7.22;100.00;99163.34;5057578;28;20384;-76
2022/02/22 00:40:31;;;;;;;;;;;;;;;7.18;100.00;99155.00;5057497;28;19932;-76
2022/02/22 00:42:59;;;;;;;;;;;;;;;7.39;100.00;99162.53;5057466;28;20300;-76
2022/02/22 00:45:29;;;;;;;;;;;;;;;7.26;100.00;99155.78;5057362;28;19925;-76
2022/02/22 00:48:22;;;;;;;;;;;;;;;7.11;100.00;99155.03;5057193;28;19978;-76
2022/02/22 00:50:51;;;;;;;;;;;;;;;7.20;100.00;99151.81;5059903;28;19935;-76
2022/02/22 00:53:21;;;;;;;;;;;;;;;7.41;100.00;99142.69;5077479;28;19924;-76
2022/02/22 00:55:50;;;;;;;;;;;;;;;7.38;100.00;99145.06;5058549;28;19931;-76
2022/02/22 00:58:17;;;;;;;;;;;;;;;7.07;100.00;99140.31;5077239;28;19924;-76
2022/02/22 01:00:44;;;;;;;;;;;;;;;6.87;100.00;99130.03;5076835;28;19978;-76
2022/02/22 01:03:19;;;;;;;;;;;;;;;6.75;100.00;99130.44;5060615;28;20015;-76
2022/02/22 01:05:54;;;;;;;;;;;;;;;6.84;100.00;99122.50;5060390;28;19928;-76
2022/02/22 01:08:22;;;;;;;;;;;;;;;7.02;100.00;99110.19;5041419;28;19925;-76
2022/02/22 01:10:50;;;;;;;;;;;;;;;7.07;100.00;99106.97;5056585;28;19925;-76
2022/02/22 01:13:21;;;;;;;;;;;;;;;7.12;100.00;99097.44;5056817;28;19925;-76
2022/02/22 01:15:49;;;;;;;;;;;;;;;7.04;100.00;99099.44;5056580;28;20019;-76
2022/02/22 01:18:17;;;;;;;;;;;;;;;7.08;100.00;99110.56;5056893;28;19925;-76
2022/02/22 01:20:45;;;;;;;;;;;;;;;6.99;100.00;99107.41;5056608;28;19925;-76
2022/02/22 01:23:13;;;;;;;;;;;;;;;7.00;100.00;99100.63;5056554;28;20003;-76
2022/02/22 01:26:01;;;;;;;;;;;;;;;6.83;100.00;99087.59;5039619;28;19924;-76
2022/02/22 01:28:30;;;;;;;;;;;;;;;6.76;100.00;99091.16;5056423;28;20280;-76
2022/02/22 01:30:57;;;;;;;;;;;;;;;6.88;100.00;99095.50;5005623;28;19971;-76
2022/02/22 01:33:24;;;;;;;;;;;;;;;6.87;100.00;99093.91;5038628;28;20385;-76
2022/02/22 01:36:03;;;;;;;;;;;;;;;7.00;100.00;99090.34;5054483;28;20043;-76
2022/02/22 01:38:32;;;;;;;;;;;;;;;7.20;100.00;99088.72;5022606;28;19932;-76
2022/02/22 01:40:59;;;;;;;;;;;;;;;7.47;100.00;99088.25;5037955;28;19924;-76
2022/02/22 01:43:26;;;;;;;;;;;;;;;7.36;100.00;99079.94;5056132;28;19925;-76
2022/02/22 01:45:58;;;;;;;;;;;;;;;7.59;100.00;99069.13;5039239;28;19932;-76
2022/02/22 01:48:26;;;;;;;;;;;;;;;7.73;100.00;99065.47;5056012;28;20399;-76
2022/02/22 01:50:54;;;;;;;;;;;;;;;7.82;100.00;99049.94;5055898;28;19929;-76
2022/02/22 01:53:22;;;;;;;;;;;;;;;7.97;100.00;99045.88;5055146;28;19928;-76
2022/02/22 01:56:07;;;;;;;;;;;;;;;7.99;100.00;99037.94;5023746;28;20020;-76
2022/02/22 01:58:36;;;;;;;;;;;;;;;8.00;100.00;99033.13;5038183;28;19924;-76
2022/02/22 02:01:04;;;;;;;;;;;;;;;7.97;100.00;99029.19;5037914;28;19932;-76
2022/02/22 02:03:39;;;;;;;;;;;;;;;8.11;100.00;99022.75;5039116;28;19939;-76
2022/02/22 02:06:24;;;;;;;;;;;;;;;8.14;100.00;99019.13;5040610;28;19935;-76
2022/02/22 02:08:52;;;;;;;;;;;;;;;8.15;100.00;99002.03;5037724;28;20054;-76
2022/02/22 02:11:52;;;;;;;;;;;;;;;8.14;100.00;99006.03;5055521;28;20384;-76
2022/02/22 02:14:42;;;;;;;;;;;;;;;7.88;100.00;99009.38;5040447;28;19925;-76
2022/02/22 02:17:12;;;;;;;;;;;;;;;7.74;100.00;99001.09;5055536;28;19924;-76
2022/02/22 02:20:06;;;;;;;;;;;;;;;8.11;100.00;99004.06;5054740;28;19925;-76
2022/02/22 02:22:56;;;;;;;;;;;;;;;7.88;100.00;99009.38;5050315;28;20322;-76
2022/02/22 02:25:29;;;;;;;;;;;;;;;8.16;100.00;98991.69;5055401;28;20380;-76
2022/02/22 02:27:57;;;;;;;;;;;;;;;8.21;100.00;98978.13;5037424;28;19925;-76
2022/02/22 02:30:29;;;;;;;;;;;;;;;8.24;100.00;98987.69;5038505;28;19924;-76
2022/02/22 02:32:56;;;;;;;;;;;;;;;8.01;100.00;98990.22;5055091;28;20263;-76
2022/02/22 02:35:27;;;;;;;;;;;;;;;8.16;100.00;98988.91;5038202;28;19925;-76
2022/02/22 02:37:59;;;;;;;;;;;;;;;7.87;100.00;98976.41;5054441;28;19925;-76
2022/02/22 02:40:36;;;;;;;;;;;;;;;8.09;100.00;98964.72;5054987;28;19932;-76
2022/02/22 02:43:26;;;;;;;;;;;;;;;8.11;100.00;98967.09;5059764;28;20007;-76
2022/02/22 02:45:54;;;;;;;;;;;;;;;7.88;100.00;98959.31;5075118;28;19933;-76
2022/02/22 02:48:23;;;;;;;;;;;;;;;7.91;100.00;98964.06;5074988;28;20291;-76
2022/02/22 02:50:53;;;;;;;;;;;;;;;8.01;100.00;98946.47;5073688;28;20015;-76
2022/02/22 02:53:21;;;;;;;;;;;;;;;8.05;100.00;98943.69;5056174;28;20390;-76
2022/02/22 02:55:52;;;;;;;;;;;;;;;8.31;100.00;98938.31;5057326;28;19928;-76
2022/02/22 02:58:26;;;;;;;;;;;;;;;8.29;100.00;98937.13;5073392;28;19931;-76
2022/02/22 03:00:54;;;;;;;;;;;;;;;8.22;100.00;98940.78;5074704;28;19924;-76
2022/02/22 03:03:21;;;;;;;;;;;;;;;8.37;100.00;98931.13;5056722;28;19932;-76
2022/02/22 03:05:49;;;;;;;;;;;;;;;8.00;100.00;98928.22;5074118;28;19952;-76
2022/02/22 03:08:39;;;;;;;;;;;;;;;7.87;100.00;98934.66;5073259;28;20011;-76
2022/02/22 03:11:08;;;;;;;;;;;;;;;7.76;100.00;98923.63;5056558;28;20454;-76
2022/02/22 03:13:37;;;;;;;;;;;;;;;7.96;100.00;98919.13;5056929;28;19978;-76
2022/02/22 03:16:06;;;;;;;;;;;;;;;8.08;100.00;98890.78;5054158;28;19955;-76
2022/02/22 03:18:54;;;;;;;;;;;;;;;8.04;100.00;98884.44;5072452;28;19948;-76
2022/02/22 03:21:53;;;;;;;;;;;;;;;8.19;100.00;98866.44;5019471;28;19925;-76
2022/02/22 03:24:40;;;;;;;;;;;;;;;8.33;100.00;98862.75;5018473;28;19933;-76
2022/02/22 03:27:29;;;;;;;;;;;;;;;8.49;100.00;98865.75;5030727;28;19925;-76
2022/02/22 03:29:57;;;;;;;;;;;;;;;8.45;100.00;98851.88;5031845;28;19975;-76
2022/02/22 03:32:44;;;;;;;;;;;;;;;8.08;100.00;98842.69;5017701;28;19925;-76
2022/02/22 03:35:12;;;;;;;;;;;;;;;8.19;100.00;98835.03;5031639;28;19925;-76
2022/02/22 03:37:40;;;;;;;;;;;;;;;8.37;100.00;98819.75;5031755;28;19951;-76
2022/02/22 03:40:42;;;;;;;;;;;;;;;8.36;100.00;98811.81;5017555;28;19924;-76
2022/02/22 03:43:28;;;;;;;;;;;;;;;8.22;100.00;98801.63;5026157;28;19931;-76
2022/02/22 03:45:58;;;;;;;;;;;;;;;8.34;100.00;98809.44;4996067;28;19925;-76
2022/02/22 03:48:55;;;;;;;;;;;;;;;8.34;100.00;98791.94;5010657;28;19929;-76
2022/02/22 03:52:03;;;;;;;;;;;;;;;8.20;100.00;98767.81;5000427;28;19987;-76
2022/02/22 03:54:48;;;;;;;;;;;;;;;8.43;100.00;98772.75;5053856;28;20383;-76
2022/02/22 03:57:50;;;;;;;;;;;;;;;8.38;100.00;98760.06;5035505;28;19978;-76
2022/02/22 04:00:36;;;;;;;;;;;;;;;8.33;100.00;98743.81;5039029;28;19932;-76
2022/02/22 04:03:23;;;;;;;;;;;;;;;8.35;100.00;98735.84;5052820;28;19978;-76
2022/02/22 04:06:10;;;;;;;;;;;;;;;8.42;100.00;98727.41;4978703;28;20409;-76
2022/02/22 04:09:16;;;;;;;;;;;;;;;8.35;100.00;98716.38;5051011;28;19983;-76
2022/02/22 04:12:06;;;;;;;;;;;;;;;8.72;100.00;98707.13;4991847;28;19933;-76
2022/02/22 04:14:51;;;;;;;;;;;;;;;8.69;100.00;98697.59;4964748;28;19933;-76
2022/02/22 04:17:54;;;;;;;;;;;;;;;8.87;100.00;98702.91;4991753;28;19948;-76
2022/02/22 04:20:43;;;;;;;;;;;;;;;9.02;100.00;98693.94;4990829;28;19969;-76
2022/02/22 04:23:23;;;;;;;;;;;;;;;9.13;100.00;98672.22;4979812;28;19980;-76
2022/02/22 04:25:50;;;;;;;;;;;;;;;8.98;100.00;98676.47;4974333;28;19926;-76
2022/02/22 04:28:40;;;;;;;;;;;;;;;9.15;100.00;98675.41;4991022;28;19929;-76
2022/02/22 04:31:29;;;;;;;;;;;;;;;9.29;100.00;98645.69;4978109;28;20082;-76
2022/02/22 04:34:14;;;;;;;;;;;;;;;9.27;100.00;98650.94;4991957;28;19933;-76
2022/02/22 04:36:57;;;;;;;;;;;;;;;9.49;100.00;98655.69;4991778;28;19969;-76
2022/02/22 04:39:50;;;;;;;;;;;;;;;9.52;100.00;98643.69;4987681;28;19936;-76
2022/02/22 04:42:22;;;;;;;;;;;;;;;9.58;100.00;98630.03;4983577;28;19925;-76
2022/02/22 04:45:09;;;;;;;;;;;;;;;9.49;100.00;98613.06;5052435;28;19931;-76
2022/02/22 04:47:41;;;;;;;;;;;;;;;9.55;100.00;98614.16;5035591;28;20031;-76
2022/02/22 04:50:08;;;;;;;;;;;;;;;9.69;100.00;98613.88;5052325;28;20049;-76
2022/02/22 04:52:57;;;;;;;;;;;;;;;9.58;100.00;98602.13;5044160;28;19925;-76
2022/02/22 04:55:44;;;;;;;;;;;;;;;9.58;100.00;98602.13;5052731;28;19932;-77
2022/02/22 04:58:34;;;;;;;;;;;;;;;9.56;100.00;98599.78;5053080;28;20487;-76
2022/02/22 05:01:22;;;;;;;;;;;;;;;9.62;100.00;98591.72;5037934;28;19936;-76
2022/02/22 05:04:11;;;;;;;;;;;;;;;9.78;100.00;98589.00;5053084;28;20399;-76
2022/02/22 05:06:42;;;;;;;;;;;;;;;9.68;100.00;98595.59;5053113;28;19929;-76
2022/02/22 05:09:33;;;;;;;;;;;;;;;9.69;100.00;98574.81;5038000;28;19931;-76
2022/02/22 05:12:24;;;;;;;;;;;;;;;9.88;100.00;98562.88;5052846;28;19960;-76
2022/02/22 05:15:12;;;;;;;;;;;;;;;9.93;100.00;98567.94;5049097;28;19925;-76
2022/02/22 05:17:41;;;;;;;;;;;;;;;9.84;100.00;98571.34;5052949;28;20011;-76
2022/02/22 05:20:16;;;;;;;;;;;;;;;9.99;100.00;98563.44;5056168;28;19925;-76
2022/02/22 05:22:46;;;;;;;;;;;;;;;10.08;100.00;98558.06;5056501;28;19925;-76
2022/02/22 05:25:15;;;;;;;;;;;;;;;9.90;100.00;98552.06;5055163;28;19952;-76
2022/02/22 05:28:08;;;;;;;;;;;;;;;10.08;100.00;98544.91;5043152;28;19925;-76
2022/02/22 05:30:35;;;;;;;;;;;;;;;10.01;100.00;98530.31;5038461;28;20028;-77
2022/02/22 05:33:14;;;;;;;;;;;;;;;9.82;100.00;98528.31;5055959;28;19924;-76
2022/02/22 05:35:45;;;;;;;;;;;;;;;9.89;100.00;98517.03;5038515;28;19925;-76
2022/02/22 05:38:13;;;;;;;;;;;;;;;9.89;100.00;98497.47;5061283;28;19928;-76
2022/02/22 05:40:41;;;;;;;;;;;;;;;9.88;100.00;98474.38;5058466;28;20298;-76
2022/02/22 05:43:19;;;;;;;;;;;;;;;9.77;100.00;98473.03;5076456;28;19986;-76
2022/02/22 05:45:47;;;;;;;;;;;;;;;9.89;100.00;98469.59;5057429;28;19924;-76
2022/02/22 05:48:14;;;;;;;;;;;;;;;9.76;100.00;98468.66;5076010;28;19948;-76
2022/02/22 05:50:43;;;;;;;;;;;;;;;9.80;100.00;98430.34;5060581;28;19924;-76
2022/02/22 05:53:33;;;;;;;;;;;;;;;9.91;100.00;98433.63;5076196;28;20272;-76
2022/02/22 05:56:20;;;;;;;;;;;;;;;9.98;100.00;98442.63;5047451;28;20011;-76
2022/02/22 05:59:07;;;;;;;;;;;;;;;10.09;100.00;98428.44;5059525;28;19936;-76
2022/02/22 06:01:59;;;;;;;;;;;;;;;10.08;100.00;98429.69;5074309;28;19925;-76
2022/02/22 06:04:44;;;;;;;;;;;;;;;10.27;100.00;98414.88;5076169;28;20315;-76
2022/02/22 06:07:11;;;;;;;;;;;;;;;10.26;100.00;98402.13;5075709;28;19924;-76
2022/02/22 06:09:39;;;;;;;;;;;;;;;10.23;100.00;98397.41;5058138;28;19924;-76
2022/02/22 06:12:27;;;;;;;;;;;;;;;10.41;100.00;98380.97;5060722;28;19924;-77
2022/02/22 06:15:15;;;;;;;;;;;;;;;10.33;100.00;98368.44;5075387;28;19925;-76
2022/02/22 06:17:44;;;;;;;;;;;;;;;10.21;100.00;98355.16;5057878;28;20066;-76
2022/02/22 06:20:14;;;;;;;;;;;;;;;10.15;100.00;98354.13;5075512;28;20019;-76
2022/02/22 06:22:43;;;;;;;;;;;;;;;10.22;100.00;98356.75;5075517;28;19924;-76
2022/02/22 06:25:12;;;;;;;;;;;;;;;10.24;100.00;98354.28;5074470;28;19925;-76
2022/02/22 06:27:46;;;;;;;;;;;;;;;10.08;100.00;98348.75;5075426;28;19925;-76
2022/02/22 06:30:14;;;;;;;;;;;;;;;10.14;100.00;98349.78;5057116;28;19928;-76
2022/02/22 06:32:41;;;;;;;;;;;;;;;9.90;100.00;98357.53;5057628;28;19925;-76
2022/02/22 06:35:09;;;;;;;;;;;;;;;10.22;100.00;98359.56;5074668;28;19925;-76
2022/02/22 06:37:37;;;;;;;;;;;;;;;10.05;100.00;98355.16;5075444;28;20019;-76
2022/02/22 06:40:05;;;;;;;;;;;;;;;10.08;100.00;98373.84;5057415;28;20264;-76
2022/02/22 06:42:37;;;;;;;;;;;;;;;10.01;100.00;98368.44;5057920;28;19924;-76
2022/02/22 06:45:04;;;;;;;;;;;;;;;10.06;100.00;98365.09;5057424;28;19928;-76
2022/02/22 06:47:32;;;;;;;;;;;;;;;9.86;100.00;98362.41;5057622;28;19925;-76
2022/02/22 06:50:24;;;;;;;;;;;;;;;9.88;100.00;98364.75;5041249;28;19925;-76
2022/02/22 06:53:14;;;;;;;;;;;;;;;9.79;100.00;98359.78;5071374;28;19971;-76
2022/02/22 06:56:14;;;;;;;;;;;;;;;9.76;100.00;98352.28;5061303;28;20376;-76
2022/02/22 06:58:44;;;;;;;;;;;;;;;9.82;100.00;98349.75;5074866;28;19928;-77
2022/02/22 07:01:29;;;;;;;;;;;;;;;10.10;100.00;98355.44;5075075;28;20038;-76
2022/02/22 07:03:56;;;;;;;;;;;;;;;10.03;100.00;98336.06;5074723;28;19931;-76
2022/02/22 07:08:16;;;;;;;;;;;;;;;9.99;100.00;98315.84;5111676;27;20432;-76
2022/02/22 07:10:55;;;;;;;;;;;;;;;10.01;100.00;98304.25;5111834;28;20271;-76
2022/02/22 07:13:23;;;;;;;;;;;;;;;9.96;100.00;98319.50;5093531;28;19931;-76
2022/02/22 07:16:01;;;;;;;;;;;;;;;10.01;100.00;98318.19;5111596;28;19924;-76
2022/02/22 07:18:28;;;;;;;;;;;;;;;9.91;100.00;98303.28;5092261;28;20332;-75
2022/02/22 07:20:57;;;;;;;;;;;;;;;10.11;100.00;98311.56;5109312;28;20355;-75
2022/02/22 07:23:53;;;;;;;;;;;;;;;10.06;100.00;98323.22;5091077;28;19924;-75
2022/02/22 07:26:27;;;;;;;;;;;;;;;10.02;100.00;98322.56;5090584;28;20015;-75
2022/02/22 07:29:17;;;;;;;;;;;;;;;9.97;100.00;98339.81;5087145;28;19970;-75
2022/02/22 07:31:44;;;;;;;;;;;;;;;10.03;100.00;98324.09;5073045;28;19924;-75
2022/02/22 07:34:12;;;;;;;;;;;;;;;10.13;100.00;98339.84;5090249;28;19977;-75
2022/02/22 07:36:40;;;;;;;;;;;;;;;10.19;100.00;98326.94;5062814;28;20603;-75
2022/02/22 07:39:08;;;;;;;;;;;;;;;10.22;100.00;98334.44;5086182;28;19924;-75
2022/02/22 07:41:36;;;;;;;;;;;;;;;10.23;100.00;98319.22;5091250;28;19924;-75
2022/02/22 07:44:04;;;;;;;;;;;;;;;10.21;100.00;98313.28;5086277;28;19924;-75
2022/02/22 07:46:31;;;;;;;;;;;;;;;10.17;100.00;98318.19;5092093;28;19931;-75
2022/02/22 07:49:01;;;;;;;;;;;;;;;10.12;100.00;98307.56;5110109;28;20276;-74
2022/02/22 07:51:28;;;;;;;;;;;;;;;10.12;100.00;98286.03;5090876;28;19931;-75
2022/02/22 07:53:55;;;;;;;;;;;;;;;10.36;100.00;98306.13;5091898;28;19928;-75
2022/02/22 07:56:23;;;;;;;;;;;;;;;10.29;100.00;98281.19;5110328;28;19924;-75
2022/02/22 07:58:51;;;;;;;;;;;;;;;10.25;100.00;98277.72;5110334;28;19924;-75
2022/02/22 08:01:18;;;;;;;;;;;;;;;10.31;100.00;98295.50;5092423;28;19924;-75
2022/02/22 08:03:50;;;;;;;;;;;;;;;10.32;100.00;98281.09;5109890;28;20400;-75
2022/02/22 08:06:22;;;;;;;;;;;;;;;10.34;100.00;98281.44;5110218;28;19928;-75
2022/02/22 08:09:12;;;;;;;;;;;;;;;10.57;100.00;98292.34;5110203;28;20268;-75
2022/02/22 08:12:00;;;;;;;;;;;;;;;10.60;100.00;98282.31;5095167;28;19924;-76
2022/02/22 08:14:29;;;;;;;;;;;;;;;10.83;100.00;98290.41;5109902;28;19932;-76
2022/02/22 08:17:19;;;;;;;;;;;;;;;10.87;100.00;98282.72;5109683;28;20419;-76
2022/02/22 08:19:46;;;;;;;;;;;;;;;10.98;100.00;98266.41;5078008;28;19936;-76
2022/02/22 08:22:18;;;;;;;;;;;;;;;11.23;100.00;98246.88;5096358;28;19924;-76
2022/02/22 08:25:05;;;;;;;;;;;;;;;11.24;100.00;98265.19;5096264;28;19935;-76
2022/02/22 08:27:44;;;;;;;;;;;;;;;11.82;100.00;98260.94;5080336;28;19931;-76
2022/02/22 08:30:20;;;;;;;;;;;;;;;11.90;100.00;98267.88;5095553;28;19924;-76
2022/02/22 08:32:53;;;;;;;;;;;;;;;11.92;100.00;98264.63;5096475;28;19956;-76
2022/02/22 08:35:21;;;;;;;;;;;;;;;12.02;100.00;98269.88;5112004;28;19931;-75
2022/02/22 08:37:50;;;;;;;;;;;;;;;11.78;100.00;98281.88;5106167;27;19932;-78
2022/02/22 08:40:38;;;;;;;;;;;;;;;11.34;100.00;98269.69;5092623;28;19930;-76
2022/02/22 08:43:08;;;;;;;;;;;;;;;11.32;100.00;98274.94;5078591;28;19924;-76
2022/02/22 08:45:35;;;;;;;;;;;;;;;11.49;100.00;98287.59;5078053;28;20018;-76
2022/02/22 08:48:23;;;;;;;;;;;;;;;11.44;100.00;98290.16;5095861;28;19924;-76
2022/02/22 08:50:52;;;;;;;;;;;;;;;11.70;100.00;98286.13;5096059;28;20000;-76
2022/02/22 08:53:48;;;;;;;;;;;;;;;11.51;100.00;98281.56;5096032;28;19924;-77
2022/02/22 08:56:35;;;;;;;;;;;;;;;11.52;100.00;98285.91;5080637;28;19924;-78
2022/02/22 08:59:17;;;;;;;;;;;;;;;11.13;100.00;98275.16;5078657;28;20018;-79
2022/02/22 09:01:45;;;;;;;;;;;;;;;11.12;100.00;98277.16;5075835;28;19990;-78
2022/02/22 09:04:13;;;;;;;;;;;;;;;11.16;100.00;98279.84;5078055;28;19924;-78
2022/02/22 09:07:03;;;;;;;;;;;;;;;11.12;100.00;98290.38;5080803;28;20270;-78
2022/02/22 09:09:51;;;;;;;;;;;;;;;11.00;100.00;98289.09;5016442;28;20433;-78
2022/02/22 09:12:38;;;;;;;;;;;;;;;11.23;100.00;98304.78;5014776;28;19933;-81
2022/02/22 09:15:28;;;;;;;;;;;;;;;11.07;100.00;98305.69;5012477;28;19933;-81
2022/02/22 09:17:55;;;;;;;;;;;;;;;10.78;100.00;98288.19;5009777;28;19946;-80
2022/02/22 09:20:23;;;;;;;;;;;;;;;10.89;100.00;98299.81;5037820;28;19925;-81
2022/02/22 09:23:07;;;;;;;;;;;;;;;10.76;100.00;98310.19;5013632;28;19940;-82
2022/02/22 09:25:48;;;;;;;;;;;;;;;10.66;100.00;98308.50;5009017;28;20377;-82
2022/02/22 09:28:16;;;;;;;;;;;;;;;10.96;100.00;98280.06;5023760;28;20344;-79
2022/02/22 09:30:55;;;;;;;;;;;;;;;11.05;100.00;98277.38;5021047;28;19961;-79
2022/02/22 09:33:48;;;;;;;;;;;;;;;10.88;100.00;98275.91;5009113;28;19925;-80
2022/02/22 09:36:37;;;;;;;;;;;;;;;10.90;100.00;98273.44;5027936;28;19956;-81
2022/02/22 09:39:20;;;;;;;;;;;;;;;10.96;100.00;98272.44;5028550;28;19925;-80
2022/02/22 09:42:14;;;;;;;;;;;;;;;11.13;100.00;98267.56;5024860;28;20028;-78
2022/02/22 09:45:08;;;;;;;;;;;;;;;10.84;100.00;98292.00;5014408;28;19925;-81
2022/02/22 09:47:41;;;;;;;;;;;;;;;10.89;100.00;98280.25;5029412;28;19929;-79
2022/02/22 09:50:09;;;;;;;;;;;;;;;10.69;100.00;98268.50;5028622;28;19925;-79
2022/02/22 09:52:56;;;;;;;;;;;;;;;10.67;100.00;98282.09;5023294;28;19987;-79
2022/02/22 09:55:26;;;;;;;;;;;;;;;10.77;100.00;98297.78;5107169;28;19928;-79
2022/02/22 09:57:55;;;;;;;;;;;;;;;10.65;100.00;98301.31;5089841;28;19924;-80
2022/02/22 10:00:26;;;;;;;;;;;;;;;10.36;100.00;98318.06;5091904;28;19986;-79
2022/02/22 10:03:15;;;;;;;;;;;;;;;10.09;100.00;98341.94;5075940;28;19931;-79
2022/02/22 10:06:05;;;;;;;;;;;;;;;10.05;100.00;98363.53;5048515;28;19929;-78
2022/02/22 10:08:37;;;;;;;;;;;;;;;9.95;100.00;98372.97;5026857;28;19928;-78
2022/02/22 10:11:13;;;;;;;;;;;;;;;9.73;100.00;98335.63;5046640;28;19929;-78
2022/02/22 10:14:05;;;;;;;;;;;;;;;9.90;100.00;98371.47;5035334;28;19932;-79
2022/02/22 10:16:42;;;;;;;;;;;;;;;9.91;100.00;98386.19;5048129;28;19931;-79
2022/02/22 10:19:28;;;;;;;;;;;;;;;9.68;100.00;98383.59;5048274;28;19931;-79
2022/02/22 10:22:00;;;;;;;;;;;;;;;9.67;100.00;98382.00;5048095;28;20025;-78
2022/02/22 10:24:28;;;;;;;;;;;;;;;9.39;100.00;98419.66;5031139;28;19960;-79
2022/02/22 10:27:06;;;;;;;;;;;;;;;9.40;100.00;98398.16;5047550;28;19928;-82
2022/02/22 10:29:34;;;;;;;;;;;;;;;8.99;100.00;98409.75;5047806;28;20395;-78
2022/02/22 10:32:12;;;;;;;;;;;;;;;8.90;100.00;98427.06;5049877;28;20399;-79
2022/02/22 10:35:05;;;;;;;;;;;;;;;8.85;100.00;98426.75;5048974;28;19978;-80
2022/02/22 10:37:33;;;;;;;;;;;;;;;8.70;100.00;98423.47;5076952;28;20373;-82
2022/02/22 10:40:26;;;;;;;;;;;;;;;8.68;100.00;98417.50;5091340;28;20001;-81
2022/02/22 10:42:54;;;;;;;;;;;;;;;8.61;100.00;98409.31;5072817;28;19962;-83
2022/02/22 10:45:22;;;;;;;;;;;;;;;8.47;100.00;98411.53;5056643;28;19924;-81
2022/02/22 10:47:49;;;;;;;;;;;;;;;8.49;100.00;98357.03;5073979;28;19924;-82
2022/02/22 10:50:25;;;;;;;;;;;;;;;8.45;100.00;98355.53;5090802;28;20267;-81
2022/02/22 10:52:52;;;;;;;;;;;;;;;8.66;100.00;98392.09;5090791;28;20368;-81
2022/02/22 10:55:24;;;;;;;;;;;;;;;8.64;100.00;98383.38;5073194;28;19924;-78
2022/02/22 10:57:55;;;;;;;;;;;;;;;8.50;100.00;98378.06;5090572;28;19975;-79
2022/02/22 11:00:22;;;;;;;;;;;;;;;8.76;100.00;98396.69;5089308;28;19924;-80
2022/02/22 11:02:50;;;;;;;;;;;;;;;8.70;100.00;98417.88;5090113;28;19928;-80
2022/02/22 11:05:35;;;;;;;;;;;;;;;8.66;100.00;98394.88;5072619;28;19924;-81
2022/02/22 11:08:26;;;;;;;;;;;;;;;8.54;100.00;98392.72;5089228;28;19924;-81
2022/02/22 11:11:02;;;;;;;;;;;;;;;8.43;100.00;98406.06;5091050;28;19931;-82
2022/02/22 11:13:32;;;;;;;;;;;;;;;8.46;100.00;98421.91;5072851;28;19924;-81
2022/02/22 11:16:19;;;;;;;;;;;;;;;8.35;100.00;98437.22;5055490;28;19924;-79
2022/02/22 11:18:50;;;;;;;;;;;;;;;8.29;100.00;98431.34;5089152;28;19924;-79
2022/02/22 11:21:20;;;;;;;;;;;;;;;8.48;100.00;98430.59;5089947;28;19940;-78
2022/02/22 11:23:47;;;;;;;;;;;;;;;8.48;100.00;98427.81;5090357;28;19928;-79
2022/02/22 11:26:14;;;;;;;;;;;;;;;8.29;100.00;98441.69;5072787;28;19930;-80
2022/02/22 11:28:45;;;;;;;;;;;;;;;8.21;100.00;98443.78;5090643;28;19973;-80
2022/02/22 11:31:14;;;;;;;;;;;;;;;8.13;100.00;98435.97;5090632;28;20065;-83
2022/02/22 11:33:49;;;;;;;;;;;;;;;7.97;100.00;98416.34;5040091;28;19930;-83
2022/02/22 11:36:27;;;;;;;;;;;;;;;8.04;100.00;98422.56;5073464;28;19924;-81
2022/02/22 11:38:54;;;;;;;;;;;;;;;8.32;100.00;98449.97;5091185;28;19930;-77
2022/02/22 11:41:33;;;;;;;;;;;;;;;8.39;100.00;98405.31;5090717;28;19924;-79
2022/02/22 11:44:03;;;;;;;;;;;;;;;8.72;100.00;98428.59;5055389;28;19998;-79
2022/02/22 11:46:40;;;;;;;;;;;;;;;8.54;100.00;98409.41;5089958;28;20007;-78
2022/02/22 11:49:10;;;;;;;;;;;;;;;8.17;100.00;98392.97;5090108;28;20002;-78
2022/02/22 11:52:08;;;;;;;;;;;;;;;8.28;100.00;98407.53;5090679;28;19998;-80
2022/02/22 11:54:36;;;;;;;;;;;;;;;8.75;100.00;98428.50;5075279;28;19928;-80
2022/02/22 11:57:09;;;;;;;;;;;;;;;8.83;100.00;98440.34;5075592;28;19938;-80
2022/02/22 12:00:03;;;;;;;;;;;;;;;8.28;100.00;98392.81;5065807;28;19925;-85
2022/02/22 12:02:41;;;;;;;;;;;;;;;8.57;100.00;98441.97;5094666;28;19924;-85
2022/02/22 12:05:22;;;;;;;;;;;;;;;8.63;100.00;98420.78;5076317;28;19947;-84
2022/02/22 12:08:08;;;;;;;;;;;;;;;8.89;100.00;98422.69;5078158;28;20011;-81
2022/02/22 12:10:44;;;;;;;;;;;;;;;8.62;100.00;98424.00;5094720;28;20335;-80
2022/02/22 12:13:14;;;;;;;;;;;;;;;8.47;100.00;98429.03;5094488;28;19958;-79
2022/02/22 12:15:45;;;;;;;;;;;;;;;8.47;100.00;98467.22;5094412;28;19924;-81
2022/02/22 12:18:16;;;;;;;;;;;;;;;8.42;100.00;98460.16;5074831;28;20009;-79
2022/02/22 12:20:46;;;;;;;;;;;;;;;8.79;100.00;98500.88;5075446;28;19924;-78
2022/02/22 12:23:15;;;;;;;;;;;;;;;8.90;100.00;98482.78;5093258;28;20574;-82
2022/02/22 12:25:43;;;;;;;;;;;;;;;8.80;100.00;98508.81;5057516;28;19928;-81
2022/02/22 12:28:13;;;;;;;;;;;;;;;8.52;100.00;98475.91;5075833;28;19924;-79
2022/02/22 12:30:44;;;;;;;;;;;;;;;8.54;100.00;98509.66;5095303;28;19928;-80
2022/02/22 12:33:32;;;;;;;;;;;;;;;8.58;100.00;98507.63;5096230;28;19989;-81
2022/02/22 12:36:15;;;;;;;;;;;;;;;8.87;100.00;98530.19;5077239;28;20007;-82
2022/02/22 12:38:42;;;;;;;;;;;;;;;8.42;100.00;98543.66;5095466;28;19924;-84
2022/02/22 12:41:34;;;;;;;;;;;;;;;8.78;100.00;98516.78;5068002;28;19932;-85
2022/02/22 12:44:22;;;;;;;;;;;;;;;8.52;100.00;98525.22;5096311;28;19931;-86
2022/02/22 12:46:52;;;;;;;;;;;;;;;8.63;100.00;98518.25;5061847;28;19932;-85
2022/02/22 12:49:20;;;;;;;;;;;;;;;8.71;100.00;98516.94;5051149;28;19924;-86
2022/02/22 12:51:49;;;;;;;;;;;;;;;8.93;100.00;98512.56;5079170;28;19924;-82
2022/02/22 12:54:19;;;;;;;;;;;;;;;8.90;100.00;98524.56;5061737;28;20386;-86
2022/02/22 12:56:54;;;;;;;;;;;;;;;8.96;100.00;98553.50;5096697;28;19932;-85
2022/02/22 12:59:25;;;;;;;;;;;;;;;9.09;100.00;98509.88;5061880;28;19986;-85
2022/02/22 13:02:07;;;;;;;;;;;;;;;9.32;100.00;98564.00;5066190;28;19947;-86
2022/02/22 13:04:36;;;;;;;;;;;;;;;9.16;100.00;98559.91;5111628;28;20439;-85
2022/02/22 13:07:10;;;;;;;;;;;;;;;9.10;100.00;98571.97;5077933;28;20371;-85
2022/02/22 13:09:42;;;;;;;;;;;;;;;8.88;100.00;98577.13;5078135;28;19924;-85
2022/02/22 13:12:29;;;;;;;;;;;;;;;9.06;100.00;98602.69;5067222;28;19958;-85
2022/02/22 13:15:22;;;;;;;;;;;;;;;8.80;100.00;98575.66;5033688;28;19929;-86
2022/02/22 13:17:54;;;;;;;;;;;;;;;8.92;100.00;98605.72;5033598;28;19926;-86
2022/02/22 13:20:36;;;;;;;;;;;;;;;8.70;100.00;98603.69;5033499;28;19932;-85
2022/02/22 13:23:06;;;;;;;;;;;;;;;8.97;100.00;98619.16;5050315;28;19929;-86
2022/02/22 13:25:57;;;;;;;;;;;;;;;8.76;100.00;98599.22;5033312;28;20024;-85
2022/02/22 13:28:41;;;;;;;;;;;;;;;8.69;100.00;98624.41;5019538;28;19932;-83
2022/02/22 13:31:15;;;;;;;;;;;;;;;8.89;100.00;98611.34;5017608;28;19929;-85